createdAt,value
2023-01-17T00:00:31.795Z,0.36
2023-01-17T00:01:31.725Z,0.29
2023-01-17T00:02:31.834Z,0.26
2023-01-17T00:03:31.688Z,0.23
2023-01-17T00:04:31.670Z,0.21
2023-01-17T00:05:31.676Z,0.22
2023-01-17T00:06:31.636Z,0.26
2023-01-17T00:07:31.638Z,0.28
2023-01-17T00:08:31.613Z,0.31
2023-01-17T00:09:31.630Z,0.31
2023-01-17T00:10:31.640Z,0.32
2023-01-17T00:11:31.581Z,0.32
2023-01-17T00:12:31.579Z,0.31
2023-01-17T00:13:31.568Z,0.29
2023-01-17T00:14:31.546Z,0.28
2023-01-17T00:15:31.560Z,0.25
2023-01-17T00:16:31.520Z,0.23
2023-01-17T00:17:31.513Z,0.23
2023-01-17T00:18:31.512Z,0.22
2023-01-17T00:19:31.490Z,0.21
2023-01-17T00:20:31.478Z,0.18
2023-01-17T00:21:31.468Z,0.16
2023-01-17T00:22:31.428Z,0.15
2023-01-17T00:23:31.432Z,0.16
2023-01-17T00:24:31.409Z,0.16
2023-01-17T00:25:31.415Z,0.16
2023-01-17T00:26:31.391Z,0.18
2023-01-17T00:27:31.363Z,0.15
2023-01-17T00:28:31.353Z,0.10
2023-01-17T00:29:31.349Z,0.07
2023-01-17T00:30:31.351Z,0.03
2023-01-17T00:31:31.318Z,0.04
2023-01-17T00:32:31.294Z,0.04
2023-01-17T00:33:31.306Z,0.01
2023-01-17T00:34:31.302Z,0.00
2023-01-17T00:35:31.267Z,-0.06
2023-01-17T00:36:31.241Z,-0.02
2023-01-17T00:37:31.227Z,-0.02
2023-01-17T00:38:31.228Z,0.01
2023-01-17T00:39:31.224Z,0.01
2023-01-17T00:40:31.201Z,0.00
2023-01-17T00:41:31.181Z,0.00
2023-01-17T00:42:31.163Z,0.00
2023-01-17T00:43:31.213Z,-0.03
2023-01-17T00:44:31.149Z,-0.02
2023-01-17T00:45:31.139Z,0.01
2023-01-17T00:46:31.167Z,0.00
2023-01-17T00:47:31.108Z,0.00
2023-01-17T00:48:31.099Z,0.04
2023-01-17T00:49:31.103Z,0.04
2023-01-17T00:50:31.063Z,0.05
2023-01-17T00:51:31.047Z,0.10
2023-01-17T00:52:31.050Z,0.08
2023-01-17T00:53:31.038Z,0.07
2023-01-17T00:54:31.035Z,0.07
2023-01-17T00:55:30.991Z,0.07
2023-01-17T00:56:30.982Z,0.05
2023-01-17T00:57:30.978Z,0.04
2023-01-17T00:58:30.955Z,0.01
2023-01-17T00:59:30.969Z,0.00
2023-01-17T01:00:31.016Z,0.00
2023-01-17T01:01:31.028Z,-0.03
2023-01-17T01:02:31.000Z,-0.10
2023-01-17T01:03:30.942Z,-0.13
2023-01-17T01:04:30.877Z,-0.14
2023-01-17T01:05:30.881Z,-0.17
2023-01-17T01:06:30.842Z,-0.17
2023-01-17T01:07:30.847Z,-0.17
2023-01-17T01:08:30.866Z,-0.15
2023-01-17T01:09:30.805Z,-0.18
2023-01-17T01:10:30.833Z,-0.17
2023-01-17T01:11:30.796Z,-0.17
2023-01-17T01:12:30.810Z,-0.17
2023-01-17T01:13:30.761Z,-0.17
2023-01-17T01:14:30.747Z,-0.15
2023-01-17T01:15:30.736Z,-0.17
2023-01-17T01:16:30.822Z,-0.18
2023-01-17T01:17:30.717Z,-0.18
2023-01-17T01:18:30.695Z,-0.18
2023-01-17T01:19:30.766Z,-0.18
2023-01-17T01:20:30.668Z,-0.18
2023-01-17T01:21:30.641Z,-0.21
2023-01-17T01:22:30.675Z,-0.25
2023-01-17T01:23:30.620Z,-0.29
2023-01-17T01:24:30.622Z,-0.34
2023-01-17T01:25:30.619Z,-0.34
2023-01-17T01:26:30.582Z,-0.35
2023-01-17T01:27:30.611Z,-0.32
2023-01-17T01:28:30.570Z,-0.32
2023-01-17T01:29:30.542Z,-0.31
2023-01-17T01:30:30.536Z,-0.31
2023-01-17T01:31:30.580Z,-0.28
2023-01-17T01:32:30.542Z,-0.28
2023-01-17T01:33:30.516Z,-0.29
2023-01-17T01:34:30.481Z,-0.29
2023-01-17T01:35:30.475Z,-0.26
2023-01-17T01:36:30.446Z,-0.29
2023-01-17T01:37:30.481Z,-0.28
2023-01-17T01:38:30.450Z,-0.29
2023-01-17T01:39:30.413Z,-0.25
2023-01-17T01:40:30.398Z,-0.29
2023-01-17T01:41:30.397Z,-0.31
2023-01-17T01:42:30.369Z,-0.32
2023-01-17T01:43:30.403Z,-0.34
2023-01-17T01:44:30.351Z,-0.35
2023-01-17T01:45:30.417Z,-0.39
2023-01-17T01:46:42.628Z,-0.41
2023-01-17T01:47:30.314Z,-0.41
2023-01-17T01:48:30.311Z,-0.43
2023-01-17T01:49:30.275Z,-0.43
2023-01-17T01:50:30.301Z,-0.43
2023-01-17T01:51:30.268Z,-0.43
2023-01-17T01:52:30.263Z,-0.43
2023-01-17T01:53:30.242Z,-0.44
2023-01-17T01:54:30.227Z,-0.47
2023-01-17T01:55:30.237Z,-0.43
2023-01-17T01:56:30.214Z,-0.46
2023-01-17T01:57:30.181Z,-0.46
2023-01-17T01:58:30.195Z,-0.47
2023-01-17T01:59:30.152Z,-0.49
2023-01-17T02:00:30.145Z,-0.50
2023-01-17T02:01:30.272Z,-0.52
2023-01-17T02:02:30.119Z,-0.54
2023-01-17T02:03:30.168Z,-0.57
2023-01-17T02:04:30.095Z,-0.59
2023-01-17T02:05:30.125Z,-0.59
2023-01-17T02:06:30.094Z,-0.61
2023-01-17T02:07:30.057Z,-0.57
2023-01-17T02:08:30.039Z,-0.59
2023-01-17T02:09:30.027Z,-0.61
2023-01-17T02:10:30.021Z,-0.61
2023-01-17T02:11:29.993Z,-0.61
2023-01-17T02:12:29.984Z,-0.59
2023-01-17T02:13:29.996Z,-0.62
2023-01-17T02:14:29.947Z,-0.61
2023-01-17T02:15:29.944Z,-0.62
2023-01-17T02:16:30.016Z,-0.64
2023-01-17T02:17:29.915Z,-0.64
2023-01-17T02:18:29.933Z,-0.65
2023-01-17T02:19:29.896Z,-0.71
2023-01-17T02:20:29.888Z,-0.77
2023-01-17T02:21:29.896Z,-0.80
2023-01-17T02:22:29.868Z,-0.80
2023-01-17T02:23:44.675Z,-0.80
2023-01-17T02:24:29.832Z,-0.77
2023-01-17T02:25:29.826Z,-0.77
2023-01-17T02:26:29.808Z,-0.75
2023-01-17T02:27:29.777Z,-0.72
2023-01-17T02:28:29.780Z,-0.74
2023-01-17T02:29:29.756Z,-0.77
2023-01-17T02:30:29.773Z,-0.75
2023-01-17T02:31:29.801Z,-0.78
2023-01-17T02:32:29.731Z,-0.77
2023-01-17T02:33:29.711Z,-0.78
2023-01-17T02:34:29.680Z,-0.77
2023-01-17T02:35:29.682Z,-0.77
2023-01-17T02:36:29.703Z,-0.80
2023-01-17T02:37:29.648Z,-0.86
2023-01-17T02:38:29.653Z,-0.90
2023-01-17T02:39:29.627Z,-0.91
2023-01-17T02:40:29.603Z,-0.94
2023-01-17T02:41:29.630Z,-0.97
2023-01-17T02:42:29.590Z,-1.01
2023-01-17T02:43:29.569Z,-0.99
2023-01-17T02:44:29.570Z,-0.99
2023-01-17T02:45:29.584Z,-0.99
2023-01-17T02:46:29.569Z,-0.96
2023-01-17T02:47:29.540Z,-0.99
2023-01-17T02:48:29.524Z,-1.01
2023-01-17T02:49:29.531Z,-1.02
2023-01-17T02:50:29.477Z,-0.99
2023-01-17T02:51:29.467Z,-1.01
2023-01-17T02:52:29.569Z,-1.02
2023-01-17T02:53:29.462Z,-1.05
2023-01-17T02:54:29.444Z,-1.05
2023-01-17T02:55:29.446Z,-1.05
2023-01-17T02:56:31.144Z,-1.02
2023-01-17T02:57:29.444Z,-1.05
2023-01-17T02:58:29.380Z,-1.04
2023-01-17T02:59:29.400Z,-0.97
2023-01-17T03:00:29.365Z,-0.96
2023-01-17T03:01:29.475Z,-0.93
2023-01-17T03:02:29.370Z,-0.90
2023-01-17T03:03:29.315Z,-0.90
2023-01-17T03:04:29.317Z,-0.90
2023-01-17T03:05:29.311Z,-0.89
2023-01-17T03:06:29.267Z,-0.90
2023-01-17T03:07:29.255Z,-0.90
2023-01-17T03:08:29.273Z,-0.89
2023-01-17T03:09:29.268Z,-0.86
2023-01-17T03:10:29.221Z,-0.89
2023-01-17T03:11:29.209Z,-0.89
2023-01-17T03:12:29.195Z,-0.89
2023-01-17T03:13:29.182Z,-0.85
2023-01-17T03:14:29.193Z,-0.83
2023-01-17T03:15:29.150Z,-0.83
2023-01-17T03:16:29.186Z,-0.82
2023-01-17T03:17:29.137Z,-0.80
2023-01-17T03:18:29.135Z,-0.78
2023-01-17T03:19:29.117Z,-0.75
2023-01-17T03:20:29.127Z,-0.75
2023-01-17T03:21:29.074Z,-0.74
2023-01-17T03:22:29.065Z,-0.74
2023-01-17T03:23:29.087Z,-0.72
2023-01-17T03:24:29.032Z,-0.71
2023-01-17T03:25:29.034Z,-0.72
2023-01-17T03:26:29.004Z,-0.75
2023-01-17T03:27:29.006Z,-0.74
2023-01-17T03:28:29.008Z,-0.75
2023-01-17T03:29:28.973Z,-0.77
2023-01-17T03:30:29.014Z,-0.82
2023-01-17T03:31:28.968Z,-0.86
2023-01-17T03:32:28.962Z,-0.91
2023-01-17T03:33:28.917Z,-0.93
2023-01-17T03:34:28.902Z,-0.96
2023-01-17T03:35:28.898Z,-0.94
2023-01-17T03:36:28.873Z,-0.94
2023-01-17T03:37:28.879Z,-0.94
2023-01-17T03:38:28.872Z,-0.94
2023-01-17T03:39:28.836Z,-0.96
2023-01-17T03:40:28.848Z,-0.93
2023-01-17T03:41:28.855Z,-0.91
2023-01-17T03:42:28.799Z,-0.93
2023-01-17T03:43:28.774Z,-0.93
2023-01-17T03:44:28.783Z,-0.91
2023-01-17T03:45:28.783Z,-0.91
2023-01-17T03:46:28.754Z,-0.91
2023-01-17T03:47:28.738Z,-0.90
2023-01-17T03:48:28.712Z,-0.86
2023-01-17T03:49:28.699Z,-0.89
2023-01-17T03:50:28.724Z,-0.90
2023-01-17T03:51:28.715Z,-0.89
2023-01-17T03:52:28.670Z,-0.90
2023-01-17T03:53:28.668Z,-0.90
2023-01-17T03:54:28.645Z,-0.89
2023-01-17T03:55:28.632Z,-0.85
2023-01-17T03:56:28.656Z,-0.86
2023-01-17T03:57:28.615Z,-0.90
2023-01-17T03:58:28.590Z,-0.93
2023-01-17T03:59:28.611Z,-0.96
2023-01-17T04:00:28.574Z,-0.99
2023-01-17T04:01:28.702Z,-1.02
2023-01-17T04:02:28.585Z,-1.02
2023-01-17T04:03:28.543Z,-1.04
2023-01-17T04:04:28.509Z,-1.05
2023-01-17T04:05:28.527Z,-1.08
2023-01-17T04:06:28.487Z,-1.14
2023-01-17T04:07:28.470Z,-1.20
2023-01-17T04:08:28.463Z,-1.23
2023-01-17T04:09:28.440Z,-1.25
2023-01-17T04:10:28.456Z,-1.27
2023-01-17T04:11:28.429Z,-1.29
2023-01-17T04:12:28.412Z,-1.29
2023-01-17T04:13:28.442Z,-1.27
2023-01-17T04:14:28.378Z,-1.29
2023-01-17T04:15:28.392Z,-1.27
2023-01-17T04:16:28.369Z,-1.25
2023-01-17T04:17:28.338Z,-1.23
2023-01-17T04:18:28.364Z,-1.23
2023-01-17T04:19:28.316Z,-1.22
2023-01-17T04:20:28.300Z,-1.17
2023-01-17T04:21:28.309Z,-1.17
2023-01-17T04:22:28.290Z,-1.17
2023-01-17T04:23:28.266Z,-1.15
2023-01-17T04:24:28.259Z,-1.12
2023-01-17T04:25:28.252Z,-1.12
2023-01-17T04:26:28.232Z,-1.08
2023-01-17T04:27:28.226Z,-1.08
2023-01-17T04:28:28.211Z,-1.08
2023-01-17T04:29:28.180Z,-1.05
2023-01-17T04:30:28.182Z,-1.05
2023-01-17T04:31:28.206Z,-1.07
2023-01-17T04:32:28.161Z,-1.08
2023-01-17T04:33:28.158Z,-1.07
2023-01-17T04:34:28.117Z,-1.07
2023-01-17T04:35:28.117Z,-1.08
2023-01-17T04:36:28.095Z,-1.12
2023-01-17T04:37:28.086Z,-1.17
2023-01-17T04:38:28.088Z,-1.20
2023-01-17T04:39:28.056Z,-1.22
2023-01-17T04:40:28.036Z,-1.22
2023-01-17T04:41:28.025Z,-1.20
2023-01-17T04:42:28.054Z,-1.22
2023-01-17T04:43:28.006Z,-1.22
2023-01-17T04:44:27.992Z,-1.20
2023-01-17T04:45:27.978Z,-1.19
2023-01-17T04:46:28.082Z,-1.19
2023-01-17T04:47:27.976Z,-1.17
2023-01-17T04:48:27.930Z,-1.17
2023-01-17T04:49:27.922Z,-1.17
2023-01-17T04:50:27.909Z,-1.19
2023-01-17T04:51:27.892Z,-1.19
2023-01-17T04:52:27.884Z,-1.20
2023-01-17T04:53:27.910Z,-1.23
2023-01-17T04:54:27.853Z,-1.23
2023-01-17T04:55:27.844Z,-1.22
2023-01-17T04:56:27.828Z,-1.27
2023-01-17T04:57:27.822Z,-1.30
2023-01-17T04:58:27.884Z,-1.33
2023-01-17T04:59:27.782Z,-1.37
2023-01-17T05:00:27.825Z,-1.43
2023-01-17T05:01:27.845Z,-1.43
2023-01-17T05:02:27.815Z,-1.41
2023-01-17T05:03:27.736Z,-1.41
2023-01-17T05:04:27.753Z,-1.41
2023-01-17T05:05:27.710Z,-1.40
2023-01-17T05:06:27.709Z,-1.40
2023-01-17T05:07:27.681Z,-1.37
2023-01-17T05:08:27.671Z,-1.35
2023-01-17T05:09:27.696Z,-1.35
2023-01-17T05:10:27.659Z,-1.32
2023-01-17T05:11:27.661Z,-1.30
2023-01-17T05:12:27.615Z,-1.30
2023-01-17T05:13:27.659Z,-1.30
2023-01-17T05:14:27.588Z,-1.30
2023-01-17T05:15:27.660Z,-1.30
2023-01-17T05:16:27.582Z,-1.30
2023-01-17T05:17:27.563Z,-1.30
2023-01-17T05:18:27.558Z,-1.27
2023-01-17T05:19:27.540Z,-1.29
2023-01-17T05:20:27.540Z,-1.29
2023-01-17T05:21:27.515Z,-1.29
2023-01-17T05:22:27.489Z,-1.29
2023-01-17T05:23:27.487Z,-1.30
2023-01-17T05:24:27.470Z,-1.33
2023-01-17T05:25:27.463Z,-1.33
2023-01-17T05:26:27.440Z,-1.35
2023-01-17T05:27:27.430Z,-1.38
2023-01-17T05:28:27.446Z,-1.44
2023-01-17T05:29:27.404Z,-1.47
2023-01-17T05:30:27.383Z,-1.54
2023-01-17T05:31:27.403Z,-1.59
2023-01-17T05:32:27.350Z,-1.62
2023-01-17T05:33:27.380Z,-1.68
2023-01-17T05:34:27.351Z,-1.69
2023-01-17T05:35:27.354Z,-1.74
2023-01-17T05:36:27.325Z,-1.72
2023-01-17T05:37:27.292Z,-1.76
2023-01-17T05:38:27.323Z,-1.74
2023-01-17T05:39:27.266Z,-1.76
2023-01-17T05:40:27.262Z,-1.72
2023-01-17T05:41:27.236Z,-1.69
2023-01-17T05:42:27.225Z,-1.68
2023-01-17T05:43:27.235Z,-1.65
2023-01-17T05:44:27.231Z,-1.64
2023-01-17T05:45:27.199Z,-1.64
2023-01-17T05:46:27.254Z,-1.61
2023-01-17T05:47:27.183Z,-1.58
2023-01-17T05:48:27.163Z,-1.54
2023-01-17T05:49:27.178Z,-1.54
2023-01-17T05:50:27.127Z,-1.54
2023-01-17T05:51:27.121Z,-1.54
2023-01-17T05:52:27.102Z,-1.53
2023-01-17T05:53:27.099Z,-1.53
2023-01-17T05:54:27.083Z,-1.53
2023-01-17T05:55:27.083Z,-1.51
2023-01-17T05:56:27.073Z,-1.51
2023-01-17T05:57:27.040Z,-1.50
2023-01-17T05:58:27.043Z,-1.51
2023-01-17T05:59:36.529Z,-1.50
2023-01-17T06:00:27.036Z,-1.50
2023-01-17T06:01:26.992Z,-1.50
2023-01-17T06:02:26.992Z,-1.50
2023-01-17T06:03:26.972Z,-1.51
2023-01-17T06:04:26.988Z,-1.53
2023-01-17T06:05:26.955Z,-1.54
2023-01-17T06:06:26.919Z,-1.58
2023-01-17T06:07:26.894Z,-1.59
2023-01-17T06:08:26.903Z,-1.64
2023-01-17T06:09:26.905Z,-1.69
2023-01-17T06:10:26.849Z,-1.83
2023-01-17T06:11:26.848Z,-1.87
2023-01-17T06:12:26.844Z,-1.90
2023-01-17T06:13:26.817Z,-1.97
2023-01-17T06:14:26.833Z,-1.94
2023-01-17T06:15:26.788Z,-1.94
2023-01-17T06:16:26.852Z,-1.90
2023-01-17T06:17:26.809Z,-1.89
2023-01-17T06:18:26.784Z,-1.89
2023-01-17T06:19:26.760Z,-1.84
2023-01-17T06:20:26.729Z,-1.84
2023-01-17T06:21:26.751Z,-1.84
2023-01-17T06:22:26.714Z,-1.84
2023-01-17T06:23:26.766Z,-1.82
2023-01-17T06:24:26.724Z,-1.82
2023-01-17T06:25:26.671Z,-1.82
2023-01-17T06:26:26.664Z,-1.80
2023-01-17T06:27:26.665Z,-1.79
2023-01-17T06:28:26.660Z,-1.77
2023-01-17T06:29:26.648Z,-1.77
2023-01-17T06:30:26.617Z,-1.77
2023-01-17T06:31:26.686Z,-1.74
2023-01-17T06:32:26.598Z,-1.72
2023-01-17T06:33:26.557Z,-1.72
2023-01-17T06:34:26.553Z,-1.71
2023-01-17T06:35:26.537Z,-1.68
2023-01-17T06:36:26.545Z,-1.69
2023-01-17T06:37:26.503Z,-1.69
2023-01-17T06:38:26.505Z,-1.68
2023-01-17T06:39:26.523Z,-1.68
2023-01-17T06:40:26.496Z,-1.71
2023-01-17T06:41:26.460Z,-1.69
2023-01-17T06:42:26.442Z,-1.72
2023-01-17T06:43:26.463Z,-1.76
2023-01-17T06:44:26.415Z,-1.79
2023-01-17T06:45:26.405Z,-1.82
2023-01-17T06:46:26.438Z,-1.79
2023-01-17T06:47:26.415Z,-1.79
2023-01-17T06:48:26.436Z,-1.80
2023-01-17T06:49:26.385Z,-1.84
2023-01-17T06:50:26.352Z,-1.89
2023-01-17T06:51:26.349Z,-1.90
2023-01-17T06:52:26.357Z,-1.94
2023-01-17T06:53:26.300Z,-1.97
2023-01-17T06:54:26.315Z,-2.00
2023-01-17T06:55:26.272Z,-2.00
2023-01-17T06:56:26.277Z,-2.00
2023-01-17T06:57:26.264Z,-2.00
2023-01-17T06:58:26.245Z,-1.98
2023-01-17T06:59:26.233Z,-2.02
2023-01-17T07:00:26.213Z,-2.00
2023-01-17T07:01:26.364Z,-2.00
2023-01-17T07:02:26.194Z,-1.98
2023-01-17T07:03:26.199Z,-1.95
2023-01-17T07:04:26.196Z,-1.94
2023-01-17T07:05:26.196Z,-1.94
2023-01-17T07:06:26.174Z,-1.92
2023-01-17T07:07:26.127Z,-1.90
2023-01-17T07:08:26.149Z,-1.90
2023-01-17T07:09:26.104Z,-1.89
2023-01-17T07:10:26.083Z,-1.87
2023-01-17T07:11:26.103Z,-1.87
2023-01-17T07:12:26.064Z,-1.83
2023-01-17T07:13:26.075Z,-1.72
2023-01-17T07:14:26.035Z,-1.58
2023-01-17T07:15:26.046Z,-1.47
2023-01-17T07:16:26.103Z,-1.46
2023-01-17T07:17:26.003Z,-1.46
2023-01-17T07:18:26.010Z,-1.46
2023-01-17T07:19:26.004Z,-1.51
2023-01-17T07:20:25.960Z,-1.58
2023-01-17T07:21:25.940Z,-1.62
2023-01-17T07:22:25.941Z,-1.61
2023-01-17T07:23:25.952Z,-1.61
2023-01-17T07:24:25.921Z,-1.61
2023-01-17T07:25:27.727Z,-1.61
2023-01-17T07:26:25.888Z,-1.62
2023-01-17T07:27:25.855Z,-1.64
2023-01-17T07:28:25.859Z,-1.64
2023-01-17T07:29:25.862Z,-1.65
2023-01-17T07:30:25.807Z,-1.66
2023-01-17T07:31:25.913Z,-1.68
2023-01-17T07:32:25.822Z,-1.68
2023-01-17T07:33:25.790Z,-1.69
2023-01-17T07:34:25.769Z,-1.68
2023-01-17T07:35:25.770Z,-1.68
2023-01-17T07:36:25.745Z,-1.68
2023-01-17T07:37:25.757Z,-1.69
2023-01-17T07:38:25.719Z,-1.71
2023-01-17T07:39:25.705Z,-1.72
2023-01-17T07:40:25.797Z,-1.76
2023-01-17T07:41:25.680Z,-1.79
2023-01-17T07:42:25.706Z,-1.77
2023-01-17T07:43:25.645Z,-1.76
2023-01-17T07:44:25.642Z,-1.76
2023-01-17T07:45:25.661Z,-1.76
2023-01-17T07:46:25.684Z,-1.76
2023-01-17T07:47:25.611Z,-1.74
2023-01-17T07:48:25.604Z,-1.76
2023-01-17T07:49:25.620Z,-1.77
2023-01-17T07:50:25.654Z,-1.80
2023-01-17T07:51:25.566Z,-1.82
2023-01-17T07:52:25.535Z,-1.84
2023-01-17T07:53:25.521Z,-1.86
2023-01-17T07:54:25.534Z,-1.89
2023-01-17T07:55:25.507Z,-1.87
2023-01-17T07:56:25.505Z,-1.90
2023-01-17T07:57:25.505Z,-1.89
2023-01-17T07:58:25.465Z,-1.90
2023-01-17T07:59:25.440Z,-1.89
2023-01-17T08:00:25.503Z,-1.87
2023-01-17T08:01:25.517Z,-1.89
2023-01-17T08:02:25.437Z,-1.86
2023-01-17T08:03:25.400Z,-1.84
2023-01-17T08:04:25.370Z,-1.80
2023-01-17T08:05:25.399Z,-1.79
2023-01-17T08:06:25.365Z,-1.76
2023-01-17T08:07:25.401Z,-1.71
2023-01-17T08:08:25.341Z,-1.66
2023-01-17T08:09:25.335Z,-1.58
2023-01-17T08:10:25.374Z,-1.47
2023-01-17T08:11:25.302Z,-1.37
2023-01-17T08:12:25.301Z,-1.26
2023-01-17T08:13:25.255Z,-1.14
2023-01-17T08:14:25.281Z,-1.04
2023-01-17T08:15:25.235Z,-0.90
2023-01-17T08:16:25.287Z,-0.78
2023-01-17T08:17:25.212Z,-0.64
2023-01-17T08:18:25.232Z,-0.54
2023-01-17T08:19:25.200Z,-0.47
2023-01-17T08:20:27.659Z,-0.38
2023-01-17T08:21:25.152Z,-0.34
2023-01-17T08:22:25.163Z,-0.32
2023-01-17T08:23:25.170Z,-0.29
2023-01-17T08:24:25.112Z,-0.25
2023-01-17T08:25:25.140Z,-0.25
2023-01-17T08:26:25.098Z,-0.18
2023-01-17T08:27:25.075Z,-0.13
2023-01-17T08:28:25.088Z,-0.03
2023-01-17T08:29:25.052Z,0.07
2023-01-17T08:30:25.088Z,0.18
2023-01-17T08:31:25.107Z,0.28
2023-01-17T08:32:25.008Z,0.40
2023-01-17T08:33:25.021Z,0.49
2023-01-17T08:34:24.991Z,0.63
2023-01-17T08:35:25.105Z,0.74
2023-01-17T08:36:24.971Z,0.87
2023-01-17T08:37:25.037Z,0.99
2023-01-17T08:38:24.929Z,1.05
2023-01-17T08:39:24.951Z,1.06
2023-01-17T08:40:24.947Z,1.08
2023-01-17T08:41:24.908Z,1.08
2023-01-17T08:42:24.878Z,1.12
2023-01-17T08:43:24.867Z,1.19
2023-01-17T08:44:24.860Z,1.22
2023-01-17T08:45:24.859Z,1.26
2023-01-17T08:46:24.856Z,1.28
2023-01-17T08:47:24.816Z,1.31
2023-01-17T08:48:24.790Z,1.32
2023-01-17T08:49:24.808Z,1.41
2023-01-17T08:50:24.791Z,1.50
2023-01-17T08:51:24.817Z,1.67
2023-01-17T08:52:24.748Z,1.87
2023-01-17T08:53:24.768Z,2.08
2023-01-17T08:54:24.728Z,2.24
2023-01-17T08:55:24.764Z,2.26
2023-01-17T08:56:24.694Z,2.36
2023-01-17T08:57:24.703Z,2.51
2023-01-17T08:58:24.654Z,2.60
2023-01-17T08:59:24.663Z,2.57
2023-01-17T09:00:24.658Z,2.60
2023-01-17T09:01:24.799Z,2.71
2023-01-17T09:02:24.639Z,2.82
2023-01-17T09:03:24.644Z,2.85
2023-01-17T09:04:24.667Z,2.83
2023-01-17T09:05:24.605Z,2.92
2023-01-17T09:06:24.601Z,3.05
2023-01-17T09:07:24.582Z,3.10
2023-01-17T09:08:24.540Z,3.05
2023-01-17T09:09:24.525Z,3.10
2023-01-17T09:10:24.515Z,3.19
2023-01-17T09:11:24.526Z,3.28
2023-01-17T09:12:24.485Z,3.41
2023-01-17T09:13:24.472Z,3.56
2023-01-17T09:14:24.450Z,3.65
2023-01-17T09:15:24.443Z,3.84
2023-01-17T09:16:24.498Z,4.08
2023-01-17T09:17:24.431Z,4.28
2023-01-17T09:18:24.396Z,4.50
2023-01-17T09:19:24.399Z,4.63
2023-01-17T09:20:24.385Z,4.82
2023-01-17T09:21:24.395Z,4.99
2023-01-17T09:22:24.356Z,5.12
2023-01-17T09:23:24.322Z,5.26
2023-01-17T09:24:24.339Z,5.28
2023-01-17T09:25:24.305Z,5.41
2023-01-17T09:26:24.343Z,5.48
2023-01-17T09:27:24.282Z,5.51
2023-01-17T09:28:24.262Z,5.44
2023-01-17T09:29:24.260Z,5.39
2023-01-17T09:30:24.257Z,5.28
2023-01-17T09:31:24.237Z,5.26
2023-01-17T09:32:24.208Z,5.32
2023-01-17T09:33:24.196Z,5.32
2023-01-17T09:34:24.206Z,5.33
2023-01-17T09:35:24.186Z,5.43
2023-01-17T09:36:24.190Z,5.53
2023-01-17T09:37:24.153Z,5.68
2023-01-17T09:38:24.122Z,5.75
2023-01-17T09:39:24.116Z,5.86
2023-01-17T09:40:24.118Z,5.94
2023-01-17T09:41:24.168Z,6.02
2023-01-17T09:42:24.083Z,6.11
2023-01-17T09:43:24.105Z,6.22
2023-01-17T09:44:24.043Z,6.38
2023-01-17T09:45:24.041Z,6.42
2023-01-17T09:46:24.052Z,6.35
2023-01-17T09:47:24.174Z,6.44
2023-01-17T09:48:24.010Z,6.56
2023-01-17T09:49:24.623Z,6.60
2023-01-17T09:50:23.962Z,6.66
2023-01-17T09:51:23.961Z,6.66
2023-01-17T09:52:23.975Z,6.74
2023-01-17T09:53:24.077Z,6.78
2023-01-17T09:54:23.960Z,6.92
2023-01-17T09:55:23.915Z,6.96
2023-01-17T09:56:24.017Z,6.84
2023-01-17T09:57:23.924Z,6.72
2023-01-17T09:58:23.876Z,6.66
2023-01-17T09:59:32.324Z,6.62
2023-01-17T10:00:23.843Z,6.57
2023-01-17T10:01:23.946Z,6.45
2023-01-17T10:02:26.235Z,6.39
2023-01-17T10:03:23.919Z,6.27
2023-01-17T10:04:23.866Z,6.22
2023-01-17T10:05:24.628Z,6.16
2023-01-17T10:06:23.752Z,6.16
2023-01-17T10:07:23.763Z,6.07
2023-01-17T10:08:23.759Z,5.97
2023-01-17T10:09:23.712Z,5.94
2023-01-17T10:10:23.717Z,5.94
2023-01-17T10:11:23.691Z,5.89
2023-01-17T10:12:23.699Z,5.82
2023-01-17T10:13:23.715Z,5.76
2023-01-17T10:14:23.644Z,5.76
2023-01-17T10:15:23.686Z,5.82
2023-01-17T10:16:23.689Z,5.84
2023-01-17T10:17:23.617Z,5.83
2023-01-17T10:18:30.000Z,5.73
2023-01-17T10:19:23.578Z,5.61
2023-01-17T10:20:23.577Z,5.62
2023-01-17T10:21:23.616Z,5.66
2023-01-17T10:22:23.533Z,5.69
2023-01-17T10:23:23.507Z,5.72
2023-01-17T10:24:23.542Z,5.72
2023-01-17T10:25:23.526Z,5.72
2023-01-17T10:26:23.521Z,5.73
2023-01-17T10:27:23.487Z,5.76
2023-01-17T10:28:23.469Z,5.80
2023-01-17T10:29:23.423Z,5.79
2023-01-17T10:30:23.425Z,5.75
2023-01-17T10:31:23.416Z,5.75
2023-01-17T10:32:23.437Z,5.72
2023-01-17T10:33:23.383Z,5.72
2023-01-17T10:34:23.373Z,5.73
2023-01-17T10:35:23.391Z,5.76
2023-01-17T10:36:23.365Z,5.79
2023-01-17T10:37:23.353Z,5.84
2023-01-17T10:38:23.323Z,5.89
2023-01-17T10:39:23.335Z,5.91
2023-01-17T10:40:23.277Z,5.99
2023-01-17T10:41:23.272Z,5.99
2023-01-17T10:42:23.266Z,6.04
2023-01-17T10:43:23.291Z,6.08
2023-01-17T10:44:23.223Z,6.14
2023-01-17T10:45:23.229Z,6.14
2023-01-17T10:46:23.352Z,6.22
2023-01-17T10:47:23.189Z,6.16
2023-01-17T10:48:23.343Z,6.11
2023-01-17T10:49:23.184Z,6.11
2023-01-17T10:50:23.155Z,6.12
2023-01-17T10:51:23.163Z,6.16
2023-01-17T10:52:23.148Z,6.16
2023-01-17T10:53:23.114Z,6.17
2023-01-17T10:54:23.096Z,6.19
2023-01-17T10:55:23.100Z,6.19
2023-01-17T10:56:23.074Z,6.16
2023-01-17T10:57:23.048Z,6.16
2023-01-17T10:58:23.074Z,6.12
2023-01-17T10:59:23.020Z,6.11
2023-01-17T11:00:23.016Z,6.12
2023-01-17T11:01:23.186Z,6.12
2023-01-17T11:02:23.226Z,6.14
2023-01-17T11:03:22.996Z,6.12
2023-01-17T11:04:22.990Z,6.11
2023-01-17T11:05:22.944Z,6.07
2023-01-17T11:06:22.955Z,6.07
2023-01-17T11:07:22.965Z,6.02
2023-01-17T11:08:22.904Z,6.04
2023-01-17T11:09:22.908Z,6.01
2023-01-17T11:10:22.939Z,5.97
2023-01-17T11:11:22.867Z,5.97
2023-01-17T11:12:22.870Z,5.97
2023-01-17T11:13:22.863Z,5.97
2023-01-17T11:14:22.824Z,5.89
2023-01-17T11:15:22.819Z,5.86
2023-01-17T11:16:22.822Z,5.80
2023-01-17T11:17:22.804Z,5.79
2023-01-17T11:18:22.769Z,5.72
2023-01-17T11:19:22.754Z,5.69
2023-01-17T11:20:22.771Z,5.65
2023-01-17T11:21:22.734Z,5.65
2023-01-17T11:22:22.745Z,5.64
2023-01-17T11:23:22.701Z,5.62
2023-01-17T11:24:22.701Z,5.62
2023-01-17T11:25:22.692Z,5.61
2023-01-17T11:26:22.661Z,5.54
2023-01-17T11:27:22.665Z,5.48
2023-01-17T11:28:22.635Z,5.43
2023-01-17T11:29:22.621Z,5.39
2023-01-17T11:30:22.614Z,5.38
2023-01-17T11:31:22.676Z,5.36
2023-01-17T11:32:22.606Z,5.36
2023-01-17T11:33:22.555Z,5.33
2023-01-17T11:34:22.575Z,5.32
2023-01-17T11:35:22.547Z,5.29
2023-01-17T11:36:22.567Z,5.29
2023-01-17T11:37:22.516Z,5.28
2023-01-17T11:38:22.494Z,5.25
2023-01-17T11:39:22.484Z,5.25
2023-01-17T11:40:22.467Z,5.23
2023-01-17T11:41:22.492Z,5.18
2023-01-17T11:42:22.451Z,5.15
2023-01-17T11:43:22.426Z,5.14
2023-01-17T11:44:22.476Z,5.07
2023-01-17T11:45:22.407Z,5.04
2023-01-17T11:46:22.558Z,4.99
2023-01-17T11:47:22.441Z,4.96
2023-01-17T11:48:22.397Z,4.97
2023-01-17T11:49:22.352Z,4.94
2023-01-17T11:50:22.358Z,4.93
2023-01-17T11:51:22.334Z,4.94
2023-01-17T11:52:22.333Z,4.93
2023-01-17T11:53:22.297Z,4.94
2023-01-17T11:54:22.276Z,4.94
2023-01-17T11:55:22.604Z,4.92
2023-01-17T11:56:22.256Z,4.90
2023-01-17T11:57:22.245Z,4.90
2023-01-17T11:58:22.264Z,4.94
2023-01-17T11:59:22.238Z,4.97
2023-01-17T12:00:22.223Z,5.02
2023-01-17T12:01:22.270Z,5.08
2023-01-17T12:02:22.161Z,5.10
2023-01-17T12:03:22.153Z,5.11
2023-01-17T12:04:22.140Z,5.11
2023-01-17T12:05:22.171Z,5.05
2023-01-17T12:06:22.139Z,4.93
2023-01-17T12:07:22.238Z,4.84
2023-01-17T12:08:22.148Z,4.78
2023-01-17T12:09:22.104Z,4.77
2023-01-17T12:10:22.107Z,4.75
2023-01-17T12:11:22.056Z,4.74
2023-01-17T12:12:22.059Z,4.74
2023-01-17T12:13:22.007Z,4.74
2023-01-17T12:14:22.038Z,4.78
2023-01-17T12:15:21.980Z,4.80
2023-01-17T12:16:21.970Z,4.80
2023-01-17T12:17:22.072Z,4.84
2023-01-17T12:18:21.955Z,4.84
2023-01-17T12:19:21.977Z,4.84
2023-01-17T12:20:22.677Z,4.86
2023-01-17T12:21:21.941Z,4.87
2023-01-17T12:22:21.890Z,4.87
2023-01-17T12:23:22.713Z,4.87
2023-01-17T12:24:21.902Z,4.87
2023-01-17T12:25:21.852Z,4.89
2023-01-17T12:26:21.830Z,4.87
2023-01-17T12:27:21.821Z,4.86
2023-01-17T12:28:21.852Z,4.86
2023-01-17T12:29:21.808Z,4.86
2023-01-17T12:30:21.824Z,4.86
2023-01-17T12:31:21.862Z,4.87
2023-01-17T12:32:21.749Z,4.87
2023-01-17T12:33:21.748Z,4.87
2023-01-17T12:34:21.767Z,4.89
2023-01-17T12:35:21.733Z,4.86
2023-01-17T12:36:21.713Z,4.87
2023-01-17T12:37:21.714Z,4.86
2023-01-17T12:38:32.184Z,4.82
2023-01-17T12:39:21.772Z,4.78
2023-01-17T12:40:21.657Z,4.80
2023-01-17T12:41:21.678Z,4.80
2023-01-17T12:42:21.637Z,4.84
2023-01-17T12:43:21.631Z,4.86
2023-01-17T12:44:21.639Z,4.86
2023-01-17T12:45:21.606Z,4.86
2023-01-17T12:46:21.613Z,4.87
2023-01-17T12:47:21.592Z,4.86
2023-01-17T12:48:21.571Z,4.87
2023-01-17T12:49:21.584Z,4.87
2023-01-17T12:50:21.528Z,4.86
2023-01-17T12:51:21.536Z,4.87
2023-01-17T12:52:21.498Z,4.82
2023-01-17T12:53:21.478Z,4.80
2023-01-17T12:54:21.471Z,4.78
2023-01-17T12:55:21.451Z,4.78
2023-01-17T12:56:21.467Z,4.77
2023-01-17T12:57:21.465Z,4.75
2023-01-17T12:58:21.428Z,4.74
2023-01-17T12:59:21.398Z,4.75
2023-01-17T13:00:21.446Z,4.73
2023-01-17T13:01:21.494Z,4.68
2023-01-17T13:02:21.481Z,4.66
2023-01-17T13:03:21.336Z,4.60